Kerman, CA

6:05 PM PDT on August 30, 2014 (GMT -0700)
GFWS123 | Change Station
CLOSE
Current Station
Personal Weather Station
Location: Kerman, CA
Elevation: 220 ft
Nearby Weather Stations

Elev 220 ft 36.67 °N, 120.04 °W | Updated 14 minutes ago

Clear
Clear
93.7 °F
Feels Like 91 °F
N
7.0
Wind Variable Wind from NW
Gusts 10.0 mph

Today
High -- | Low -- °F
--% Chance of Precip.
Yesterday
High -- | Low -- °F
Precip. -- in
6:29 AM 7:31 PM
Waxing Crescent, 26% visible
Pressure 29.78 in
Visibility 10.0 miles
Clouds Few 11000 ft
Heat Index 91 °F
Dew Point 53 °F
Humidity 25%
Rainfall 0.00 in
Snow Depth Not available.
UV 1 out of 12
Pollen 9.90 out of 12
Air Quality Not available.
Flu Activity Not available.
METAR KMAE 310053Z AUTO 34013KT 10SM FEW110 36/04 A2978 RMK AO2 SLP082 T03610044

More Conditions Fewer Conditions

Pressure 29.78 in
Visibility 10.0 miles
Clouds Few 11000 ft
Heat Index 91 °F
Dew Point 53 °F
Humidity 25%
Rainfall 0.00 in
Snow Depth Not available.
UV 1 out of 12
Pollen 9.90 out of 12
Air Quality Not available.
Flu Activity Not available.
METAR KMAE 310053Z AUTO 34013KT 10SM FEW110 36/04 A2978 RMK AO2 SLP082 T03610044

More Conditions Fewer Conditions

10-Day Weather Forecast

Almanac

Astronomy

Aug. 30, 2014 Rise Set
Actual Time 6:29 AM PDT 7:31 PM PDT
Civil Twilight 6:03 AM PDT 7:57 PM PDT
Nautical Twilight 5:31 AM PDT 8:29 PM PDT
Astronomical Twilight 4:58 AM PDT 9:01 PM PDT
Moon 11:13 AM PDT (8/30) 10:17 PM PDT (8/30)
Length of Visible Light 13h 54m
Length of Day
13h 01m
Tomorrow will be 2m 13s shorter.
Waxing Crescent, 26% of the Moon is Illuminated
Today
Waxing Crescent
Sep 2
First Quarter
Sep 8
Full
Sep 15
Last Quarter
Sep 24
New

Today's Extremes

State Highs State Lows

Community

WunderPhotos

Upload Photos

1,748,707 photos uploaded!

Nearby

Air Quality

  Air Quality AQ Index Pollutant
Saturday Moderate
OZONE
Sunday Moderate
OZONE
Monday Moderate
OZONE
Tuesday Moderate
OZONE
Wednesday Moderate
OZONE
Thursday Moderate
OZONE

Snow Depth

Station Depth Elevation
Leavitt Meadows 0 in 7200 ft
Summit Meadow 0 in 9122 ft
Blue Lakes 0 in 8000 ft
Tahoe City Cross 0 in 6750 ft
CSS Lab 0 in 6900 ft

Earthquake Activity

City Distance Mag. Time & Date
Ridgemark, California 68 miles 3.4 4:32 PM PDT
2014-08-29
Ridgemark, California 69 miles 3.0 2:44 PM PDT
2014-08-29
Orange Cove, California 46 miles 2.5 7:48 AM PDT
2014-08-29
Minimum magnitude displayed is 2.5.

Coastal Water Temperatures

Place Temperature
No Stations Reporting

Nearby Weather Stations